sensor_id;sensor_type;location;lat;lon;timestamp;pressure;altitude;pressure_sealevel;temperature;humidity
61292;BME280;47165;42.664;23.368;2022-09-30T00:02:09;94679.94;;;17.55;81.94
61292;BME280;47165;42.664;23.368;2022-09-30T00:04:36;94697.44;;;17.36;82.46
61292;BME280;47165;42.664;23.368;2022-09-30T00:07:01;94690.22;;;17.38;82.31
61292;BME280;47165;42.664;23.368;2022-09-30T00:09:27;94704.53;;;17.45;82.04
61292;BME280;47165;42.664;23.368;2022-09-30T00:11:52;94714.41;;;17.43;81.75
61292;BME280;47165;42.664;23.368;2022-09-30T00:14:19;94694.13;;;17.44;81.90
61292;BME280;47165;42.664;23.368;2022-09-30T00:16:45;94712.31;;;17.47;81.71
61292;BME280;47165;42.664;23.368;2022-09-30T00:19:11;94704.91;;;17.21;82.61
61292;BME280;47165;42.664;23.368;2022-09-30T00:21:37;94692.13;;;17.26;82.44
61292;BME280;47165;42.664;23.368;2022-09-30T00:24:04;94691.03;;;17.39;82.23
61292;BME280;47165;42.664;23.368;2022-09-30T00:26:30;94708.28;;;17.43;82.32
61292;BME280;47165;42.664;23.368;2022-09-30T00:28:57;94721.63;;;17.41;81.85
61292;BME280;47165;42.664;23.368;2022-09-30T00:31:24;94726.59;;;17.35;82.14
61292;BME280;47165;42.664;23.368;2022-09-30T00:33:50;94719.38;;;17.37;81.95
61292;BME280;47165;42.664;23.368;2022-09-30T00:36:38;94720.78;;;17.41;82.03
61292;BME280;47165;42.664;23.368;2022-09-30T00:39:05;94715.38;;;17.42;81.91
61292;BME280;47165;42.664;23.368;2022-09-30T00:41:32;94707.44;;;17.42;81.78
61292;BME280;47165;42.664;23.368;2022-09-30T00:43:58;94706.19;;;17.46;81.64
61292;BME280;47165;42.664;23.368;2022-09-30T00:46:39;94712.00;;;17.30;81.86
61292;BME280;47165;42.664;23.368;2022-09-30T00:49:11;94698.09;;;17.28;81.80
61292;BME280;47165;42.664;23.368;2022-09-30T00:51:42;94700.50;;;17.32;81.67
61292;BME280;47165;42.664;23.368;2022-09-30T00:54:13;94693.53;;;17.30;81.69
61292;BME280;47165;42.664;23.368;2022-09-30T00:56:44;94693.13;;;17.35;81.64
61292;BME280;47165;42.664;23.368;2022-09-30T00:59:14;94704.66;;;17.34;81.27
61292;BME280;47165;42.664;23.368;2022-09-30T01:01:41;94711.13;;;17.11;81.52
61292;BME280;47165;42.664;23.368;2022-09-30T01:04:12;94680.28;;;17.01;82.62
61292;BME280;47165;42.664;23.368;2022-09-30T01:06:39;94699.44;;;17.03;82.80
61292;BME280;47165;42.664;23.368;2022-09-30T01:09:04;94695.22;;;16.91;82.97
61292;BME280;47165;42.664;23.368;2022-09-30T01:11:30;94686.78;;;16.97;82.41
61292;BME280;47165;42.664;23.368;2022-09-30T01:14:01;94700.84;;;17.07;82.47
61292;BME280;47165;42.664;23.368;2022-09-30T01:46:37;94698.72;;;17.01;81.25
61292;BME280;47165;42.664;23.368;2022-09-30T02:00:06;94697.63;;;17.04;80.33
61292;BME280;47165;42.664;23.368;2022-09-30T02:02:37;94690.69;;;17.03;80.29
61292;BME280;47165;42.664;23.368;2022-09-30T02:05:13;94703.75;;;17.04;80.16
61292;BME280;47165;42.664;23.368;2022-09-30T02:07:45;94700.13;;;17.05;80.07
61292;BME280;47165;42.664;23.368;2022-09-30T02:10:17;94699.44;;;17.03;79.64
61292;BME280;47165;42.664;23.368;2022-09-30T02:12:55;94702.34;;;17.00;79.28
61292;BME280;47165;42.664;23.368;2022-09-30T02:15:26;94714.84;;;16.98;79.31
61292;BME280;47165;42.664;23.368;2022-09-30T02:17:55;94712.47;;;16.95;79.30
61292;BME280;47165;42.664;23.368;2022-09-30T02:20:29;94715.09;;;16.95;79.23
61292;BME280;47165;42.664;23.368;2022-09-30T02:23:04;94714.28;;;16.95;79.25
61292;BME280;47165;42.664;23.368;2022-09-30T02:25:35;94722.31;;;16.93;79.22
61292;BME280;47165;42.664;23.368;2022-09-30T02:28:07;94716.19;;;16.93;79.46
61292;BME280;47165;42.664;23.368;2022-09-30T02:30:35;94724.53;;;16.88;78.94
61292;BME280;47165;42.664;23.368;2022-09-30T02:33:06;94722.41;;;16.82;78.60
61292;BME280;47165;42.664;23.368;2022-09-30T02:35:35;94719.03;;;16.80;78.95
61292;BME280;47165;42.664;23.368;2022-09-30T02:38:07;94718.19;;;16.79;79.28
61292;BME280;47165;42.664;23.368;2022-09-30T02:40:41;94719.75;;;16.61;80.02
61292;BME280;47165;42.664;23.368;2022-09-30T02:43:09;94715.19;;;16.63;80.32
61292;BME280;47165;42.664;23.368;2022-09-30T02:46:38;94715.91;;;16.65;80.38
61292;BME280;47165;42.664;23.368;2022-09-30T02:54:02;94706.94;;;16.46;81.85
61292;BME280;47165;42.664;23.368;2022-09-30T02:58:59;94720.44;;;16.53;82.06
61292;BME280;47165;42.664;23.368;2022-09-30T03:01:25;94720.16;;;16.56;81.91
61292;BME280;47165;42.664;23.368;2022-09-30T03:03:55;94724.22;;;16.60;81.80
61292;BME280;47165;42.664;23.368;2022-09-30T03:06:21;94724.09;;;16.62;81.99
61292;BME280;47165;42.664;23.368;2022-09-30T03:08:47;94728.25;;;16.64;81.91
61292;BME280;47165;42.664;23.368;2022-09-30T03:11:18;94736.88;;;16.66;82.29
61292;BME280;47165;42.664;23.368;2022-09-30T03:16:49;94736.91;;;16.24;85.91
61292;BME280;47165;42.664;23.368;2022-09-30T03:19:28;94735.88;;;16.37;85.56
61292;BME280;47165;42.664;23.368;2022-09-30T03:31:18;94738.78;;;16.64;84.46
61292;BME280;47165;42.664;23.368;2022-09-30T03:34:43;94736.03;;;16.66;84.01
61292;BME280;47165;42.664;23.368;2022-09-30T03:41:45;94745.47;;;16.68;83.04
61292;BME280;47165;42.664;23.368;2022-09-30T03:44:31;94748.81;;;16.70;83.02
61292;BME280;47165;42.664;23.368;2022-09-30T03:47:05;94740.19;;;16.68;82.96
61292;BME280;47165;42.664;23.368;2022-09-30T03:49:38;94743.53;;;16.70;83.19
61292;BME280;47165;42.664;23.368;2022-09-30T03:52:05;94749.53;;;16.73;83.39
61292;BME280;47165;42.664;23.368;2022-09-30T03:54:32;94757.19;;;16.76;83.10
61292;BME280;47165;42.664;23.368;2022-09-30T03:56:57;94760.53;;;16.78;82.61
61292;BME280;47165;42.664;23.368;2022-09-30T03:59:28;94756.22;;;16.77;82.74
61292;BME280;47165;42.664;23.368;2022-09-30T04:01:54;94761.75;;;16.74;82.92
61292;BME280;47165;42.664;23.368;2022-09-30T04:04:21;94764.38;;;16.74;82.90
61292;BME280;47165;42.664;23.368;2022-09-30T04:06:46;94760.47;;;16.68;82.83
61292;BME280;47165;42.664;23.368;2022-09-30T04:09:12;94761.28;;;16.68;83.13
61292;BME280;47165;42.664;23.368;2022-09-30T04:11:37;94764.63;;;16.70;83.34
61292;BME280;47165;42.664;23.368;2022-09-30T04:14:03;94765.34;;;16.73;83.18
61292;BME280;47165;42.664;23.368;2022-09-30T04:16:29;94755.63;;;16.73;83.16
61292;BME280;47165;42.664;23.368;2022-09-30T04:18:55;94754.56;;;16.76;82.99
61292;BME280;47165;42.664;23.368;2022-09-30T04:21:23;94759.81;;;16.76;82.70
61292;BME280;47165;42.664;23.368;2022-09-30T04:23:49;94763.69;;;16.72;82.73
61292;BME280;47165;42.664;23.368;2022-09-30T04:26:16;94763.63;;;16.62;83.15
61292;BME280;47165;42.664;23.368;2022-09-30T04:28:42;94746.78;;;16.53;83.26
61292;BME280;47165;42.664;23.368;2022-09-30T04:31:09;94750.38;;;16.52;83.39
61292;BME280;47165;42.664;23.368;2022-09-30T04:33:36;94757.34;;;16.53;83.78
61292;BME280;47165;42.664;23.368;2022-09-30T04:36:02;94771.22;;;16.55;83.81
61292;BME280;47165;42.664;23.368;2022-09-30T04:38:28;94786.56;;;16.50;84.18
61292;BME280;47165;42.664;23.368;2022-09-30T04:40:54;94753.41;;;16.47;84.35
61292;BME280;47165;42.664;23.368;2022-09-30T04:43:20;94774.19;;;16.41;84.21
61292;BME280;47165;42.664;23.368;2022-09-30T04:45:48;94783.44;;;16.35;84.21
61292;BME280;47165;42.664;23.368;2022-09-30T04:48:14;94785.94;;;16.37;84.43
61292;BME280;47165;42.664;23.368;2022-09-30T04:50:41;94802.13;;;16.32;84.45
61292;BME280;47165;42.664;23.368;2022-09-30T04:53:08;94797.13;;;16.29;84.73
61292;BME280;47165;42.664;23.368;2022-09-30T04:55:35;94786.47;;;16.31;84.95
61292;BME280;47165;42.664;23.368;2022-09-30T04:58:00;94809.56;;;16.27;84.88
61292;BME280;47165;42.664;23.368;2022-09-30T05:00:26;94810.81;;;16.12;84.97
61292;BME280;47165;42.664;23.368;2022-09-30T05:02:51;94816.69;;;16.15;85.54
61292;BME280;47165;42.664;23.368;2022-09-30T05:05:17;94824.78;;;16.23;86.07
61292;BME280;47165;42.664;23.368;2022-09-30T05:07:43;94821.22;;;16.24;85.58
61292;BME280;47165;42.664;23.368;2022-09-30T05:10:09;94812.59;;;16.22;85.65
61292;BME280;47165;42.664;23.368;2022-09-30T05:12:38;94803.22;;;16.29;85.77
61292;BME280;47165;42.664;23.368;2022-09-30T05:15:06;94796.91;;;16.21;85.93
61292;BME280;47165;42.664;23.368;2022-09-30T05:17:32;94815.69;;;16.27;85.86
61292;BME280;47165;42.664;23.368;2022-09-30T05:19:58;94803.31;;;16.28;85.39
61292;BME280;47165;42.664;23.368;2022-09-30T05:22:24;94817.69;;;16.35;85.57
61292;BME280;47165;42.664;23.368;2022-09-30T05:24:50;94842.56;;;16.42;85.35
61292;BME280;47165;42.664;23.368;2022-09-30T05:27:17;94834.66;;;16.42;84.94
61292;BME280;47165;42.664;23.368;2022-09-30T05:29:43;94833.56;;;16.45;85.23
61292;BME280;47165;42.664;23.368;2022-09-30T05:32:09;94835.00;;;16.49;85.23
61292;BME280;47165;42.664;23.368;2022-09-30T05:34:35;94830.03;;;16.56;85.28
61292;BME280;47165;42.664;23.368;2022-09-30T05:37:02;94830.13;;;16.65;84.92
61292;BME280;47165;42.664;23.368;2022-09-30T05:39:28;94835.94;;;16.69;84.76
61292;BME280;47165;42.664;23.368;2022-09-30T05:41:55;94843.84;;;16.48;85.33
61292;BME280;47165;42.664;23.368;2022-09-30T05:44:21;94847.97;;;16.41;86.00
61292;BME280;47165;42.664;23.368;2022-09-30T05:46:47;94849.72;;;16.52;85.54
61292;BME280;47165;42.664;23.368;2022-09-30T05:49:12;94855.31;;;16.58;85.56
61292;BME280;47165;42.664;23.368;2022-09-30T05:51:38;94864.63;;;16.62;85.16
61292;BME280;47165;42.664;23.368;2022-09-30T05:54:03;94858.00;;;16.68;85.27
61292;BME280;47165;42.664;23.368;2022-09-30T05:56:29;94867.03;;;16.65;84.74
61292;BME280;47165;42.664;23.368;2022-09-30T05:58:54;94863.88;;;16.72;84.90
61292;BME280;47165;42.664;23.368;2022-09-30T06:01:20;94866.00;;;16.78;84.83
61292;BME280;47165;42.664;23.368;2022-09-30T06:03:45;94871.03;;;16.81;84.73
61292;BME280;47165;42.664;23.368;2022-09-30T06:06:12;94872.19;;;16.88;84.10
61292;BME280;47165;42.664;23.368;2022-09-30T06:08:39;94863.06;;;16.92;83.87
61292;BME280;47165;42.664;23.368;2022-09-30T06:11:10;94863.25;;;17.00;83.77
61292;BME280;47165;42.664;23.368;2022-09-30T06:13:36;94872.31;;;17.07;83.89
61292;BME280;47165;42.664;23.368;2022-09-30T06:16:01;94876.34;;;17.12;83.66
61292;BME280;47165;42.664;23.368;2022-09-30T06:18:27;94866.25;;;17.17;83.49
61292;BME280;47165;42.664;23.368;2022-09-30T06:20:57;94869.09;;;17.25;83.35
61292;BME280;47165;42.664;23.368;2022-09-30T06:23:23;94881.06;;;17.29;83.32
61292;BME280;47165;42.664;23.368;2022-09-30T06:25:53;94868.56;;;17.31;83.23
61292;BME280;47165;42.664;23.368;2022-09-30T06:28:19;94873.13;;;17.29;83.04
61292;BME280;47165;42.664;23.368;2022-09-30T06:30:45;94873.47;;;17.15;83.09
61292;BME280;47165;42.664;23.368;2022-09-30T06:33:13;94888.25;;;17.27;83.15
61292;BME280;47165;42.664;23.368;2022-09-30T06:35:39;94897.19;;;17.36;83.31
61292;BME280;47165;42.664;23.368;2022-09-30T06:38:10;94875.84;;;17.48;83.11
61292;BME280;47165;42.664;23.368;2022-09-30T06:40:36;94872.41;;;17.58;82.91
61292;BME280;47165;42.664;23.368;2022-09-30T06:43:03;94887.56;;;17.65;82.48
61292;BME280;47165;42.664;23.368;2022-09-30T06:45:29;94897.31;;;17.65;82.13
61292;BME280;47165;42.664;23.368;2022-09-30T06:47:58;94900.81;;;17.75;81.84
61292;BME280;47165;42.664;23.368;2022-09-30T06:50:24;94911.84;;;17.80;81.66
61292;BME280;47165;42.664;23.368;2022-09-30T06:52:50;94910.91;;;17.60;81.21
61292;BME280;47165;42.664;23.368;2022-09-30T06:55:16;94903.94;;;17.49;80.76
61292;BME280;47165;42.664;23.368;2022-09-30T06:57:42;94917.03;;;17.61;81.15
61292;BME280;47165;42.664;23.368;2022-09-30T07:00:09;94923.31;;;17.69;81.00
61292;BME280;47165;42.664;23.368;2022-09-30T07:02:35;94922.66;;;17.77;80.45
61292;BME280;47165;42.664;23.368;2022-09-30T07:05:01;94937.16;;;17.83;79.78
61292;BME280;47165;42.664;23.368;2022-09-30T07:07:28;94930.78;;;17.85;79.32
61292;BME280;47165;42.664;23.368;2022-09-30T07:09:53;94932.88;;;17.92;79.27
61292;BME280;47165;42.664;23.368;2022-09-30T07:12:19;94934.16;;;17.97;79.01
61292;BME280;47165;42.664;23.368;2022-09-30T07:14:44;94952.25;;;18.02;79.06
61292;BME280;47165;42.664;23.368;2022-09-30T07:17:10;94945.47;;;18.09;78.69
61292;BME280;47165;42.664;23.368;2022-09-30T07:19:35;94943.66;;;18.09;78.60
61292;BME280;47165;42.664;23.368;2022-09-30T07:22:01;94956.75;;;18.11;78.30
61292;BME280;47165;42.664;23.368;2022-09-30T07:24:45;94951.75;;;18.18;78.50
61292;BME280;47165;42.664;23.368;2022-09-30T07:27:10;94942.81;;;18.19;77.78
61292;BME280;47165;42.664;23.368;2022-09-30T07:29:38;94950.34;;;18.14;76.77
61292;BME280;47165;42.664;23.368;2022-09-30T07:32:04;94954.81;;;18.13;77.17
61292;BME280;47165;42.664;23.368;2022-09-30T07:34:30;94961.69;;;18.04;76.99
61292;BME280;47165;42.664;23.368;2022-09-30T07:36:55;94971.88;;;18.09;77.20
61292;BME280;47165;42.664;23.368;2022-09-30T07:39:20;94969.25;;;18.09;77.22
61292;BME280;47165;42.664;23.368;2022-09-30T07:41:46;94960.34;;;18.10;77.37
61292;BME280;47165;42.664;23.368;2022-09-30T07:44:13;94956.03;;;18.09;76.85
61292;BME280;47165;42.664;23.368;2022-09-30T07:46:41;94962.72;;;18.13;76.42
61292;BME280;47165;42.664;23.368;2022-09-30T07:49:11;94959.81;;;18.16;76.04
61292;BME280;47165;42.664;23.368;2022-09-30T07:51:39;94957.97;;;18.17;76.31
61292;BME280;47165;42.664;23.368;2022-09-30T07:54:12;94948.69;;;18.22;76.74
61292;BME280;47165;42.664;23.368;2022-09-30T07:56:37;94948.44;;;18.25;77.12
61292;BME280;47165;42.664;23.368;2022-09-30T07:59:04;94959.41;;;18.30;76.54
61292;BME280;47165;42.664;23.368;2022-09-30T08:01:31;94963.34;;;18.36;76.74
61292;BME280;47165;42.664;23.368;2022-09-30T08:03:58;94969.91;;;18.42;76.64
61292;BME280;47165;42.664;23.368;2022-09-30T08:06:26;94975.72;;;18.45;76.77
61292;BME280;47165;42.664;23.368;2022-09-30T08:08:54;94965.84;;;18.47;76.42
61292;BME280;47165;42.664;23.368;2022-09-30T08:11:21;94978.78;;;18.41;76.20
61292;BME280;47165;42.664;23.368;2022-09-30T08:13:54;94980.88;;;18.47;75.54
61292;BME280;47165;42.664;23.368;2022-09-30T08:16:21;94978.94;;;18.49;75.24
61292;BME280;47165;42.664;23.368;2022-09-30T08:18:47;94978.81;;;18.50;75.60
61292;BME280;47165;42.664;23.368;2022-09-30T08:21:12;94978.81;;;18.50;75.54
61292;BME280;47165;42.664;23.368;2022-09-30T08:23:38;94985.78;;;18.61;75.64
61292;BME280;47165;42.664;23.368;2022-09-30T08:26:08;94987.75;;;18.69;76.00
61292;BME280;47165;42.664;23.368;2022-09-30T08:28:35;94991.97;;;18.81;75.75
61292;BME280;47165;42.664;23.368;2022-09-30T08:31:10;94994.88;;;18.88;74.69
61292;BME280;47165;42.664;23.368;2022-09-30T08:33:36;94996.03;;;18.95;74.53
61292;BME280;47165;42.664;23.368;2022-09-30T08:36:22;94990.88;;;19.03;73.41
61292;BME280;47165;42.664;23.368;2022-09-30T08:38:49;94983.47;;;19.17;73.01
61292;BME280;47165;42.664;23.368;2022-09-30T08:41:43;95002.13;;;19.35;72.72
61292;BME280;47165;42.664;23.368;2022-09-30T08:47:04;94996.66;;;19.56;72.69
61292;BME280;47165;42.664;23.368;2022-09-30T08:52:19;94998.84;;;19.70;71.90
61292;BME280;47165;42.664;23.368;2022-09-30T08:54:49;95005.31;;;19.77;72.22
61292;BME280;47165;42.664;23.368;2022-09-30T08:57:14;95019.06;;;19.81;71.11
61292;BME280;47165;42.664;23.368;2022-09-30T08:59:46;95003.47;;;19.87;70.34
61292;BME280;47165;42.664;23.368;2022-09-30T09:14:14;95011.28;;;20.44;68.70
61292;BME280;47165;42.664;23.368;2022-09-30T09:19:33;95017.81;;;20.60;69.30
61292;BME280;47165;42.664;23.368;2022-09-30T09:22:01;95008.00;;;20.70;69.06
61292;BME280;47165;42.664;23.368;2022-09-30T09:24:39;95009.44;;;20.82;68.48
61292;BME280;47165;42.664;23.368;2022-09-30T09:30:18;95017.78;;;21.05;67.79
61292;BME280;47165;42.664;23.368;2022-09-30T09:32:50;95021.59;;;21.21;68.55
61292;BME280;47165;42.664;23.368;2022-09-30T09:35:53;95017.56;;;21.35;67.31
61292;BME280;47165;42.664;23.368;2022-09-30T09:44:42;95004.59;;;21.76;65.14
61292;BME280;47165;42.664;23.368;2022-09-30T09:47:12;95016.97;;;21.85;65.18
61292;BME280;47165;42.664;23.368;2022-09-30T09:52:40;95012.28;;;22.05;63.26
61292;BME280;47165;42.664;23.368;2022-09-30T09:55:13;94998.03;;;22.14;62.77
61292;BME280;47165;42.664;23.368;2022-09-30T09:57:41;95008.25;;;22.27;61.60
61292;BME280;47165;42.664;23.368;2022-09-30T10:00:25;95004.34;;;22.47;61.16
61292;BME280;47165;42.664;23.368;2022-09-30T10:05:35;95018.25;;;22.76;61.55
61292;BME280;47165;42.664;23.368;2022-09-30T10:10:44;95006.06;;;23.07;59.53
61292;BME280;47165;42.664;23.368;2022-09-30T10:13:16;95007.91;;;23.23;58.37
61292;BME280;47165;42.664;23.368;2022-09-30T10:15:42;95013.59;;;23.37;57.17
61292;BME280;47165;42.664;23.368;2022-09-30T10:18:21;95002.25;;;23.59;56.74
61292;BME280;47165;42.664;23.368;2022-09-30T10:20:56;94998.44;;;23.78;57.58
61292;BME280;47165;42.664;23.368;2022-09-30T10:23:32;95003.44;;;23.89;54.36
61292;BME280;47165;42.664;23.368;2022-09-30T10:26:00;94995.53;;;24.13;54.46
61292;BME280;47165;42.664;23.368;2022-09-30T10:28:31;94981.66;;;24.25;51.85
61292;BME280;47165;42.664;23.368;2022-09-30T10:31:10;94981.91;;;24.47;51.45
61292;BME280;47165;42.664;23.368;2022-09-30T10:33:45;94985.16;;;24.74;53.21
61292;BME280;47165;42.664;23.368;2022-09-30T10:36:21;94984.69;;;24.93;52.31
61292;BME280;47165;42.664;23.368;2022-09-30T10:39:02;94975.53;;;25.19;51.16
61292;BME280;47165;42.664;23.368;2022-09-30T10:41:31;94984.38;;;25.42;51.70
61292;BME280;47165;42.664;23.368;2022-09-30T10:44:00;94984.19;;;25.67;50.82
61292;BME280;47165;42.664;23.368;2022-09-30T10:46:33;94979.91;;;25.96;48.71
61292;BME280;47165;42.664;23.368;2022-09-30T10:49:09;94981.59;;;26.26;51.15
61292;BME280;47165;42.664;23.368;2022-09-30T10:51:36;94978.91;;;26.56;46.34
61292;BME280;47165;42.664;23.368;2022-09-30T10:54:04;94978.13;;;26.92;46.35
61292;BME280;47165;42.664;23.368;2022-09-30T10:59:02;94981.41;;;27.52;43.43
61292;BME280;47165;42.664;23.368;2022-09-30T11:01:37;94974.97;;;27.89;41.92
61292;BME280;47165;42.664;23.368;2022-09-30T11:04:22;94976.00;;;28.23;41.22
61292;BME280;47165;42.664;23.368;2022-09-30T11:06:55;94970.63;;;28.58;40.82
61292;BME280;47165;42.664;23.368;2022-09-30T11:09:35;94970.63;;;29.06;38.44
61292;BME280;47165;42.664;23.368;2022-09-30T11:12:23;94965.53;;;29.65;34.86
61292;BME280;47165;42.664;23.368;2022-09-30T11:14:57;94957.47;;;30.32;34.95
61292;BME280;47165;42.664;23.368;2022-09-30T11:17:37;94964.81;;;31.15;35.65
61292;BME280;47165;42.664;23.368;2022-09-30T11:22:53;94964.91;;;32.77;30.43
61292;BME280;47165;42.664;23.368;2022-09-30T11:28:10;94954.50;;;33.95;26.93
61292;BME280;47165;42.664;23.368;2022-09-30T11:33:58;94970.22;;;35.04;25.95
61292;BME280;47165;42.664;23.368;2022-09-30T11:41:45;94961.72;;;35.41;22.25
61292;BME280;47165;42.664;23.368;2022-09-30T11:44:35;94968.81;;;35.59;22.02
61292;BME280;47165;42.664;23.368;2022-09-30T11:58:03;94962.94;;;35.79;22.48
61292;BME280;47165;42.664;23.368;2022-09-30T12:00:30;94961.72;;;35.58;22.05
61292;BME280;47165;42.664;23.368;2022-09-30T12:03:09;94954.81;;;35.51;22.50
61292;BME280;47165;42.664;23.368;2022-09-30T12:05:43;94959.56;;;35.43;22.02
61292;BME280;47165;42.664;23.368;2022-09-30T12:08:17;94954.66;;;35.40;22.22
61292;BME280;47165;42.664;23.368;2022-09-30T12:10:51;94960.91;;;35.00;24.44
61292;BME280;47165;42.664;23.368;2022-09-30T12:13:28;94962.66;;;34.66;23.27
61292;BME280;47165;42.664;23.368;2022-09-30T12:15:56;94968.53;;;34.51;21.91
61292;BME280;47165;42.664;23.368;2022-09-30T12:18:27;94965.47;;;34.47;21.21
61292;BME280;47165;42.664;23.368;2022-09-30T12:21:00;94960.03;;;34.83;22.81
61292;BME280;47165;42.664;23.368;2022-09-30T12:26:00;94970.78;;;35.64;25.49
61292;BME280;47165;42.664;23.368;2022-09-30T12:28:42;94967.22;;;36.09;22.86
61292;BME280;47165;42.664;23.368;2022-09-30T12:31:49;94971.66;;;36.49;19.48
61292;BME280;47165;42.664;23.368;2022-09-30T12:34:54;94985.00;;;36.68;19.58
61292;BME280;47165;42.664;23.368;2022-09-30T12:37:47;94975.09;;;36.83;19.37
61292;BME280;47165;42.664;23.368;2022-09-30T12:48:48;94987.00;;;36.04;20.23
61292;BME280;47165;42.664;23.368;2022-09-30T12:51:47;94981.16;;;35.96;19.56
61292;BME280;47165;42.664;23.368;2022-09-30T12:54:18;94968.69;;;35.66;19.65
61292;BME280;47165;42.664;23.368;2022-09-30T12:56:45;94975.63;;;35.04;20.14
61292;BME280;47165;42.664;23.368;2022-09-30T12:59:12;94970.56;;;34.67;21.60
61292;BME280;47165;42.664;23.368;2022-09-30T13:01:39;94971.72;;;34.13;21.32
61292;BME280;47165;42.664;23.368;2022-09-30T13:11:46;94974.69;;;34.11;21.14
61292;BME280;47165;42.664;23.368;2022-09-30T13:19:44;94971.53;;;34.26;20.71
61292;BME280;47165;42.664;23.368;2022-09-30T13:40:41;94982.00;;;34.22;20.65
61292;BME280;47165;42.664;23.368;2022-09-30T13:43:11;94977.84;;;34.43;20.83
61292;BME280;47165;42.664;23.368;2022-09-30T13:45:40;94982.91;;;34.52;20.94
61292;BME280;47165;42.664;23.368;2022-09-30T13:48:13;94976.78;;;34.80;20.77
61292;BME280;47165;42.664;23.368;2022-09-30T13:50:46;94978.16;;;34.94;20.04
61292;BME280;47165;42.664;23.368;2022-09-30T13:56:07;94986.94;;;34.73;18.61
61292;BME280;47165;42.664;23.368;2022-09-30T14:16:10;94995.41;;;33.03;21.96
61292;BME280;47165;42.664;23.368;2022-09-30T14:21:45;95012.41;;;33.40;21.51
61292;BME280;47165;42.664;23.368;2022-09-30T14:24:15;95007.56;;;33.61;21.57
61292;BME280;47165;42.664;23.368;2022-09-30T14:27:11;95012.00;;;33.06;22.16
61292;BME280;47165;42.664;23.368;2022-09-30T14:30:08;95010.34;;;33.24;21.25
61292;BME280;47165;42.664;23.368;2022-09-30T14:32:56;95011.41;;;33.23;21.69
61292;BME280;47165;42.664;23.368;2022-09-30T14:35:28;95012.09;;;33.48;21.29
61292;BME280;47165;42.664;23.368;2022-09-30T14:38:00;95013.97;;;33.48;21.49
61292;BME280;47165;42.664;23.368;2022-09-30T14:40:32;95016.91;;;33.46;21.96
61292;BME280;47165;42.664;23.368;2022-09-30T14:43:01;95020.47;;;33.28;22.31
61292;BME280;47165;42.664;23.368;2022-09-30T14:45:32;95013.88;;;33.24;21.87
61292;BME280;47165;42.664;23.368;2022-09-30T14:48:08;95029.28;;;33.05;21.46
61292;BME280;47165;42.664;23.368;2022-09-30T14:50:59;95032.28;;;32.60;22.45
61292;BME280;47165;42.664;23.368;2022-09-30T14:53:39;95028.13;;;31.82;22.81
61292;BME280;47165;42.664;23.368;2022-09-30T14:56:25;95026.84;;;31.92;23.37
61292;BME280;47165;42.664;23.368;2022-09-30T14:58:51;95031.81;;;31.63;23.68
61292;BME280;47165;42.664;23.368;2022-09-30T15:01:18;95034.72;;;31.61;24.06
61292;BME280;47165;42.664;23.368;2022-09-30T15:03:56;95036.28;;;31.37;24.55
61292;BME280;47165;42.664;23.368;2022-09-30T15:06:28;95044.72;;;31.16;24.59
61292;BME280;47165;42.664;23.368;2022-09-30T15:09:03;95046.84;;;31.00;24.62
61292;BME280;47165;42.664;23.368;2022-09-30T15:11:30;95049.00;;;30.65;24.94
61292;BME280;47165;42.664;23.368;2022-09-30T15:14:04;95040.75;;;30.40;25.85
61292;BME280;47165;42.664;23.368;2022-09-30T15:16:31;95052.75;;;30.37;26.53
61292;BME280;47165;42.664;23.368;2022-09-30T15:18:57;95037.03;;;30.07;26.13
61292;BME280;47165;42.664;23.368;2022-09-30T15:21:24;95048.00;;;29.93;26.44
61292;BME280;47165;42.664;23.368;2022-09-30T15:23:55;95046.28;;;29.65;27.07
61292;BME280;47165;42.664;23.368;2022-09-30T15:26:25;95045.03;;;29.54;27.21
61292;BME280;47165;42.664;23.368;2022-09-30T15:28:52;95057.16;;;29.30;27.04
61292;BME280;47165;42.664;23.368;2022-09-30T15:31:29;95055.09;;;29.25;27.57
61292;BME280;47165;42.664;23.368;2022-09-30T15:34:04;95072.97;;;28.98;28.08
61292;BME280;47165;42.664;23.368;2022-09-30T15:36:32;95075.22;;;28.60;27.84
61292;BME280;47165;42.664;23.368;2022-09-30T15:38:58;95081.09;;;28.48;28.49
61292;BME280;47165;42.664;23.368;2022-09-30T15:41:24;95086.53;;;28.27;28.61
61292;BME280;47165;42.664;23.368;2022-09-30T15:43:51;95088.47;;;28.12;29.53
61292;BME280;47165;42.664;23.368;2022-09-30T15:48:46;95084.22;;;27.96;30.30
61292;BME280;47165;42.664;23.368;2022-09-30T15:51:41;95085.81;;;27.90;30.68
61292;BME280;47165;42.664;23.368;2022-09-30T15:56:39;95095.34;;;27.56;30.74
61292;BME280;47165;42.664;23.368;2022-09-30T15:59:06;95093.84;;;27.47;31.28
61292;BME280;47165;42.664;23.368;2022-09-30T16:01:43;95097.38;;;27.33;31.35
61292;BME280;47165;42.664;23.368;2022-09-30T16:09:28;95120.81;;;26.64;32.16
61292;BME280;47165;42.664;23.368;2022-09-30T16:12:30;95130.06;;;26.39;33.01
61292;BME280;47165;42.664;23.368;2022-09-30T16:15:05;95126.81;;;26.28;33.00
61292;BME280;47165;42.664;23.368;2022-09-30T16:17:35;95130.66;;;26.11;33.09
61292;BME280;47165;42.664;23.368;2022-09-30T16:20:06;95132.19;;;26.05;32.89
61292;BME280;47165;42.664;23.368;2022-09-30T16:22:48;95132.59;;;26.17;32.66
61292;BME280;47165;42.664;23.368;2022-09-30T16:25:19;95133.59;;;26.16;33.85
61292;BME280;47165;42.664;23.368;2022-09-30T16:27:45;95144.69;;;26.13;32.84
61292;BME280;47165;42.664;23.368;2022-09-30T16:30:17;95147.06;;;26.08;32.90
61292;BME280;47165;42.664;23.368;2022-09-30T16:32:46;95142.91;;;26.05;33.28
61292;BME280;47165;42.664;23.368;2022-09-30T16:35:21;95144.44;;;26.00;33.11
61292;BME280;47165;42.664;23.368;2022-09-30T16:37:47;95145.56;;;26.05;33.16